Time;durP1;ratioP1;P1;durP2;ratioP2;P2;SDS_P1;SDS_P2;PMS_P1;PMS_P2;Temp;Humidity;BMP_temperature;BMP_pressure;BME280_temperature;BME280_humidity;BME280_pressure;Samples;Min_cycle;Max_cycle;Signal;HPM_P1;HPM_P2
2022/11/28 00:02:29;;;;;;;12.40;6.50;;;;;;;;;;4993705;28;20598;-69
2022/11/28 00:05:34;;;;;;;10.68;5.38;;;11.30;92.50;;;;;;4993490;28;20041;-69
2022/11/28 00:08:39;;;;;;;9.98;5.20;;;10.90;91.70;;;;;;4993317;28;20438;-68
2022/11/28 00:11:44;;;;;;;14.95;6.13;;;11.00;91.70;;;;;;4993578;28;20049;-68
2022/11/28 00:14:48;;;;;;;15.73;7.05;;;;;;;;;;4993357;28;20037;-69
2022/11/28 00:17:52;;;;;;;28.58;12.80;;;;;;;;;;4993210;28;20061;-68
2022/11/28 00:21:05;;;;;;;16.50;7.95;;;11.10;91.90;;;;;;4993278;28;20046;-70
2022/11/28 00:24:10;;;;;;;22.98;9.88;;;;;;;;;;4993456;28;20169;-70
2022/11/28 00:27:14;;;;;;;20.30;11.57;;;;;;;;;;4993360;28;20052;-68
2022/11/28 00:30:19;;;;;;;30.30;15.95;;;;;;;;;;4992307;28;20045;-68
2022/11/28 00:33:23;;;;;;;15.27;9.18;;;;;;;;;;4993003;28;20049;-69
2022/11/28 00:36:28;;;;;;;15.63;9.30;;;12.80;92.70;;;;;;4992989;28;20050;-69
2022/11/28 00:39:33;;;;;;;14.38;8.18;;;;;;;;;;4992858;28;20406;-69
2022/11/28 00:42:37;;;;;;;21.42;8.75;;;10.60;91.90;;;;;;4992858;28;20046;-69
2022/11/28 00:45:41;;;;;;;12.27;8.20;;;;;;;;;;4992751;28;20521;-69
2022/11/28 00:48:45;;;;;;;13.57;8.45;;;10.30;92.60;;;;;;5003501;28;20049;-69
2022/11/28 00:51:49;;;;;;;15.63;9.25;;;;;;;;;;4992685;28;20089;-68
2022/11/28 00:54:53;;;;;;;15.38;8.82;;;10.40;92.80;;;;;;4992544;28;20049;-69
2022/11/28 00:57:58;;;;;;;14.90;9.18;;;;;;;;;;4992477;28;20045;-69
2022/11/28 01:01:36;;;;;;;23.25;8.57;;;10.40;93.20;;;;;;4993194;28;20061;-70
2022/11/28 01:04:41;;;;;;;20.08;9.98;;;;;;;;;;4986483;28;20045;-69
2022/11/28 01:07:45;;;;;;;25.70;11.38;;;10.40;91.90;;;;;;4992023;28;20144;-69
2022/11/28 01:10:49;;;;;;;34.60;16.67;;;10.50;91.90;;;;;;4992444;28;20398;-69
2022/11/28 01:13:54;;;;;;;31.48;15.60;;;10.40;92.00;;;;;;4992158;28;20045;-70
2022/11/28 01:16:58;;;;;;;22.75;11.93;;;;;;;;;;4992202;28;20045;-70
2022/11/28 01:20:06;;;;;;;16.50;8.38;;;10.30;92.50;;;;;;4992290;28;20053;-69
2022/11/28 01:23:10;;;;;;;14.63;8.98;;;10.10;92.70;;;;;;4992395;28;20422;-69
2022/11/28 01:26:26;;;;;;;14.73;8.15;;;10.00;93.00;;;;;;4991713;28;20537;-69
2022/11/28 01:29:30;;;;;;;16.50;8.60;;;;;;;;;;4992058;28;20050;-69
2022/11/28 01:32:35;;;;;;;16.13;7.65;;;;;;;;;;4991541;28;20057;-69
2022/11/28 01:35:39;;;;;;;16.35;8.02;;;;;;;;;;4992115;28;20037;-69
2022/11/28 01:38:43;;;;;;;15.10;8.43;;;9.80;93.70;;;;;;4991858;28;20509;-70
2022/11/28 01:41:48;;;;;;;15.05;7.53;;;;;;;;;;4991984;28;20045;-69
2022/11/28 01:44:52;;;;;;;17.65;8.23;;;;;;;;;;4992115;28;20420;-68
2022/11/28 01:47:59;;;;;;;18.10;9.50;;;;;;;;;;4991436;28;20049;-68
2022/11/28 01:51:07;;;;;;;17.23;8.60;;;11.10;93.30;;;;;;4991941;28;20507;-68
2022/11/28 01:54:12;;;;;;;50.63;22.73;;;10.00;93.00;;;;;;4991613;28;20048;-68
2022/11/28 01:57:20;;;;;;;40.35;17.75;;;10.00;92.70;;;;;;4991812;28;20045;-68
2022/11/28 02:00:24;;;;;;;27.33;13.23;;;;;;;;;;4991996;28;20073;-68
2022/11/28 02:03:36;;;;;;;11.77;6.82;;;9.80;92.80;;;;;;4991360;28;20054;-68
2022/11/28 02:06:40;;;;;;;;;;;10.50;93.30;;;;;;4992177;28;20049;-68
2022/11/28 02:09:44;;;;;;;15.57;7.68;;;9.70;92.90;;;;;;4991593;28;19929;-68
2022/11/28 02:12:51;;;;;;;12.15;6.40;;;11.50;93.30;;;;;;4991730;28;20500;-68
2022/11/28 02:16:07;;;;;;;12.80;7.20;;;9.10;93.00;;;;;;4991609;28;20053;-68
2022/11/28 02:19:11;;;;;;;17.42;8.13;;;;;;;;;;4991346;28;20053;-68
2022/11/28 02:22:45;;;;;;;14.43;7.93;;;9.20;93.90;;;;;;4991540;28;20051;-68
2022/11/28 02:26:06;;;;;;;15.55;8.68;;;;;;;;;;4991341;28;20041;-68
2022/11/28 02:29:12;;;;;;;11.15;6.32;;;9.40;93.80;;;;;;4991098;28;20050;-68
2022/11/28 02:32:16;;;;;;;12.10;6.65;;;;;;;;;;4991084;28;20057;-69
2022/11/28 02:35:39;;;;;;;13.00;7.00;;;9.40;93.60;;;;;;4991128;28;20050;-68
2022/11/28 02:39:08;;;;;;;13.85;6.70;;;9.40;94.00;;;;;;4995003;28;20409;-68
2022/11/28 02:42:22;;;;;;;12.57;6.40;;;9.20;94.00;;;;;;4995189;28;20521;-68
2022/11/28 02:45:39;;;;;;;13.10;6.30;;;;;;;;;;4994983;28;20065;-68
2022/11/28 02:49:01;;;;;;;15.50;7.03;;;9.10;94.70;;;;;;4994928;28;20045;-69
2022/11/28 02:52:16;;;;;;;13.77;6.88;;;9.10;94.90;;;;;;4994691;28;20509;-68
2022/11/28 02:55:20;;;;;;;12.68;6.97;;;;;;;;;;5005387;28;20038;-68
2022/11/28 02:58:25;;;;;;;17.98;7.00;;;9.00;95.10;;;;;;4994493;28;20073;-68
2022/11/28 03:01:35;;;;;;;14.40;6.57;;;8.50;94.70;;;;;;5005083;28;20045;-68
2022/11/28 03:05:04;;;;;;;9.70;6.07;;;9.40;95.30;;;;;;4994541;28;20054;-68
2022/11/28 03:08:33;;;;;;;15.38;6.32;;;8.90;95.40;;;;;;4994581;28;20051;-68
2022/11/28 03:11:46;;;;;;;12.85;6.78;;;8.90;95.20;;;;;;4994299;28;20505;-68
2022/11/28 03:14:57;;;;;;;11.00;5.63;;;7.50;95.00;;;;;;4994351;28;20049;-68
2022/11/28 03:18:01;;;;;;;11.10;5.82;;;;;;;;;;4994280;28;20053;-69
2022/11/28 03:21:15;;;;;;;13.95;5.88;;;8.90;95.10;;;;;;4994448;28;20053;-68
2022/11/28 03:24:26;;;;;;;11.55;6.15;;;9.10;95.30;;;;;;4994355;28;20045;-68
2022/11/28 03:27:41;;;;;;;10.30;5.57;;;9.80;95.40;;;;;;4994257;28;20054;-68
2022/11/28 03:30:56;;;;;;;12.73;6.45;;;9.10;95.30;;;;;;4993752;28;20541;-68
2022/11/28 03:34:05;;;;;;;8.15;4.35;;;9.10;95.60;;;;;;4994230;28;20053;-68
2022/11/28 03:37:23;;;;;;;13.10;6.60;;;9.80;95.40;;;;;;4993909;28;20390;-68
2022/11/28 03:40:34;;;;;;;9.10;5.88;;;9.80;95.60;;;;;;4993859;28;20077;-68
2022/11/28 03:43:41;;;;;;;13.57;6.72;;;;;;;;;;4993929;28;20034;-68
2022/11/28 03:46:46;;;;;;;12.68;5.93;;;;;;;;;;4993703;28;20054;-68
2022/11/28 03:49:54;;;;;;;10.65;6.03;;;6.70;95.40;;;;;;5004099;28;20053;-69
2022/11/28 03:53:04;;;;;;;11.27;6.35;;;9.00;95.90;;;;;;4993501;28;20050;-68
2022/11/28 03:56:16;;;;;;;10.25;5.65;;;9.00;95.70;;;;;;4993640;28;20041;-68
2022/11/28 03:59:44;;;;;;;10.85;6.18;;;9.10;95.80;;;;;;4993286;28;20061;-68
2022/11/28 04:02:57;;;;;;;10.57;6.53;;;9.00;96.10;;;;;;4993493;28;20037;-68
2022/11/28 04:06:13;;;;;;;12.55;6.55;;;8.80;96.40;;;;;;4993817;28;20508;-68
2022/11/28 04:09:35;;;;;;;9.70;5.95;;;9.10;96.40;;;;;;4993477;28;20390;-68
2022/11/28 04:12:52;;;;;;;11.65;6.68;;;8.90;96.50;;;;;;4993308;28;20035;-68
2022/11/28 04:15:56;;;;;;;10.40;6.20;;;;;;;;;;4993507;28;20042;-68
2022/11/28 04:19:26;;;;;;;19.27;10.50;;;8.60;96.60;;;;;;4993016;28;20201;-68
2022/11/28 04:22:40;;;;;;;16.63;10.05;;;9.00;96.70;;;;;;4993092;28;20045;-68
2022/11/28 04:25:52;;;;;;;20.92;10.02;;;9.30;96.90;;;;;;4993116;28;20418;-69
2022/11/28 04:28:58;;;;;;;17.02;9.57;;;9.60;96.90;;;;;;4993146;28;20045;-68
2022/11/28 04:32:03;;;;;;;11.80;7.63;;;;;;;;;;4992786;28;20498;-69
2022/11/28 04:35:24;;;;;;;9.38;6.45;;;8.80;96.10;;;;;;4992857;28;20046;-68
2022/11/28 04:38:30;;;;;;;12.02;7.05;;;8.20;96.30;;;;;;4992690;28;20049;-68
2022/11/28 04:41:37;;;;;;;11.95;6.43;;;;;;;;;;4992478;28;20061;-68
2022/11/28 04:44:52;;;;;;;11.63;7.78;;;;;;;;;;4992819;28;20065;-69
2022/11/28 04:47:57;;;;;;;10.18;6.40;;;;;;;;;;4992367;28;20045;-68
2022/11/28 04:51:17;;;;;;;9.68;6.35;;;8.50;96.70;;;;;;4992672;28;20046;-68
2022/11/28 04:54:43;;;;;;;11.80;6.38;;;8.60;96.50;;;;;;4992733;28;20057;-68
2022/11/28 04:57:49;;;;;;;12.30;6.53;;;;;;;;;;4992944;28;20038;-68
2022/11/28 05:00:54;;;;;;;14.02;6.10;;;8.90;96.00;;;;;;4991555;28;20046;-68
2022/11/28 05:03:59;;;;;;;9.50;5.82;;;;;;;;;;4992385;28;20049;-68
2022/11/28 05:07:05;;;;;;;11.27;7.18;;;;;;;;;;4992014;28;20038;-68
2022/11/28 05:10:11;;;;;;;10.63;6.22;;;8.40;95.90;;;;;;4992184;28;20066;-68
2022/11/28 05:13:15;;;;;;;15.80;6.18;;;8.30;95.80;;;;;;4992255;28;20049;-68
2022/11/28 05:16:19;;;;;;;15.02;7.28;;;;;;;;;;4992134;28;20398;-68
2022/11/28 05:19:23;;;;;;;16.88;6.70;;;8.90;96.30;;;;;;4992133;28;20061;-68
2022/11/28 05:22:27;;;;;;;16.60;7.50;;;7.80;96.10;;;;;;4991894;28;20439;-68
2022/11/28 05:25:31;;;;;;;14.52;6.93;;;8.60;96.60;;;;;;4991968;28;20332;-68
2022/11/28 05:28:35;;;;;;;16.55;8.18;;;8.00;96.90;;;;;;4991876;28;20045;-68
2022/11/28 05:31:39;;;;;;;13.88;7.68;;;;;;;;;;4991723;28;20054;-68
2022/11/28 05:34:43;;;;;;;13.77;7.43;;;7.40;97.00;;;;;;4991844;28;20118;-68
2022/11/28 05:37:47;;;;;;;12.90;7.35;;;7.90;97.10;;;;;;4992003;28;20398;-69
2022/11/28 05:40:51;;;;;;;14.55;7.75;;;8.20;97.40;;;;;;4991893;28;20045;-68
2022/11/28 05:43:56;;;;;;;16.17;8.30;;;8.90;97.80;;;;;;4991722;28;20065;-68
2022/11/28 05:47:00;;;;;;;19.45;8.88;;;8.20;97.60;;;;;;4991838;28;20057;-68
2022/11/28 05:50:04;;;;;;;22.88;9.52;;;7.90;97.80;;;;;;4991827;28;20061;-68
2022/11/28 05:53:10;;;;;;;17.27;7.80;;;8.10;97.60;;;;;;4991939;28;20050;-68
2022/11/28 05:56:16;;;;;;;17.45;8.57;;;8.70;97.70;;;;;;4991814;28;20049;-68
2022/11/28 05:59:20;;;;;;;22.90;8.57;;;7.00;97.30;;;;;;4991617;28;20053;-69
2022/11/28 06:02:24;;;;;;;20.63;9.07;;;8.00;97.80;;;;;;4991766;28;20041;-68
2022/11/28 06:05:28;;;;;;;15.10;8.70;;;8.20;97.50;;;;;;4991735;28;20049;-69
2022/11/28 06:08:32;;;;;;;19.63;9.38;;;8.20;97.50;;;;;;4991659;28;20089;-68
2022/11/28 06:11:36;;;;;;;25.27;10.50;;;8.80;98.10;;;;;;4993994;28;20053;-71
2022/11/28 06:14:40;;;;;;;23.88;12.27;;;8.00;97.90;;;;;;4995353;28;20049;-72
2022/11/28 06:17:47;;;;;;;31.67;12.35;;;;;;;;;;4995621;28;20049;-72
2022/11/28 06:20:51;;;;;;;30.02;11.85;;;;;;;;;;4995572;28;20053;-72
2022/11/28 06:23:57;;;;;;;23.98;10.80;;;8.20;98.20;;;;;;4995174;28;20048;-72
2022/11/28 06:27:01;;;;;;;27.98;10.10;;;8.50;97.90;;;;;;4995283;28;20042;-73
2022/11/28 06:30:06;;;;;;;20.17;10.45;;;7.80;97.60;;;;;;4995302;28;20589;-73
2022/11/28 06:33:10;;;;;;;16.75;10.10;;;8.30;97.50;;;;;;4995445;28;20525;-73
2022/11/28 06:36:18;;;;;;;23.25;9.38;;;8.10;97.20;;;;;;4995197;28;20049;-73
2022/11/28 06:39:23;;;;;;;22.42;9.82;;;7.90;97.10;;;;;;4995058;28;20057;-73
2022/11/28 06:42:26;;;;;;;18.35;10.15;;;7.70;97.40;;;;;;5005862;28;20049;-72
2022/11/28 06:45:32;;;;;;;35.13;12.23;;;8.00;97.70;;;;;;4994990;28;20061;-72
2022/11/28 06:48:36;;;;;;;26.27;11.13;;;8.20;97.70;;;;;;4996029;28;20391;-72
2022/11/28 06:51:41;;;;;;;51.13;19.48;;;9.40;97.90;;;;;;4994877;28;20061;-71
2022/11/28 06:54:45;;;;;;;27.92;10.40;;;8.20;97.70;;;;;;5004953;28;20049;-73
2022/11/28 06:57:49;;;;;;;18.92;10.77;;;8.10;97.50;;;;;;4994809;28;20053;-72
2022/11/28 07:00:53;;;;;;;36.20;13.55;;;;;;;;;;4994826;28;20049;-72
2022/11/28 07:03:58;;;;;;;37.58;16.25;;;;;;;;;;4994970;28;20037;-72
2022/11/28 07:07:02;;;;;;;32.35;12.38;;;8.40;97.50;;;;;;4994444;28;20069;-72
2022/11/28 07:10:06;;;;;;;27.63;12.52;;;8.50;97.40;;;;;;4994473;28;20053;-71
2022/11/28 07:13:10;;;;;;;28.08;11.52;;;8.60;97.50;;;;;;4994216;28;20057;-73
2022/11/28 07:16:17;;;;;;;23.52;11.55;;;10.40;97.70;;;;;;4994170;28;20497;-72
2022/11/28 07:19:21;;;;;;;19.63;10.48;;;8.80;97.30;;;;;;4993974;28;20418;-71
2022/11/28 07:22:26;;;;;;;17.75;9.98;;;;;;;;;;4993512;28;20045;-70
2022/11/28 07:25:31;;;;;;;22.88;10.55;;;;;;;;;;4994178;28;20049;-70
2022/11/28 07:28:35;;;;;;;23.83;9.90;;;;;;;;;;4994047;28;20133;-69
2022/11/28 07:31:39;;;;;;;21.42;10.13;;;;;;;;;;4993858;28;20061;-72
2022/11/28 07:34:44;;;;;;;20.02;10.65;;;;;;;;;;4993696;28;20513;-72
2022/11/28 07:37:48;;;;;;;26.98;10.30;;;10.20;96.40;;;;;;4993954;28;20045;-69
2022/11/28 07:40:52;;;;;;;22.48;10.43;;;10.20;96.30;;;;;;4993891;28;20053;-72
2022/11/28 07:43:58;;;;;;;22.10;9.57;;;10.20;95.90;;;;;;4993920;28;20110;-72
2022/11/28 07:47:02;;;;;;;19.58;10.98;;;10.40;95.70;;;;;;4993963;28;20053;-71
2022/11/28 07:50:07;;;;;;;20.90;9.68;;;10.70;95.30;;;;;;4993574;28;20045;-71
2022/11/28 07:53:11;;;;;;;26.30;8.00;;;10.70;94.90;;;;;;4993236;28;20049;-72
2022/11/28 07:56:18;;;;;;;16.00;8.13;;;10.90;95.10;;;;;;4993186;28;20046;-71
2022/11/28 07:59:22;;;;;;;14.40;8.00;;;;;;;;;;5003829;28;20520;-72
2022/11/28 08:02:31;;;;;;;17.38;8.73;;;;;;;;;;4993190;28;20042;-72
2022/11/28 08:05:35;;;;;;;19.80;10.40;;;;;;;;;;4993103;28;20046;-70
2022/11/28 08:08:40;;;;;;;12.75;8.02;;;;;;;;;;4993316;28;20041;-72
2022/11/28 08:11:44;;;;;;;13.02;8.25;;;12.00;93.70;;;;;;4993280;28;20057;-71
2022/11/28 08:14:48;;;;;;;13.15;7.63;;;11.20;93.30;;;;;;4993372;28;20510;-69
2022/11/28 08:17:52;;;;;;;19.30;8.07;;;;;;;;;;4993079;28;20048;-71
2022/11/28 08:21:08;;;;;;;11.48;7.18;;;12.60;92.70;;;;;;4992776;28;20410;-68
2022/11/28 08:24:12;;;;;;;8.65;6.45;;;12.50;92.60;;;;;;4993076;28;20064;-70
2022/11/28 08:27:16;;;;;;;15.07;7.05;;;13.20;92.60;;;;;;4993245;28;20061;-69
2022/11/28 08:30:20;;;;;;;12.02;6.82;;;13.20;92.00;;;;;;4993201;28;20053;-70
2022/11/28 08:33:24;;;;;;;12.93;6.82;;;13.20;91.00;;;;;;4992550;28;20161;-70
2022/11/28 08:36:28;;;;;;;15.65;7.70;;;13.30;91.50;;;;;;4992964;28;20049;-70
2022/11/28 08:39:32;;;;;;;11.98;6.55;;;13.40;91.80;;;;;;4992500;28;20410;-69
2022/11/28 08:42:36;;;;;;;9.43;6.18;;;13.60;91.00;;;;;;4992704;28;20045;-69
2022/11/28 08:45:40;;;;;;;11.60;7.82;;;13.60;91.10;;;;;;4992686;28;20050;-69
2022/11/28 08:48:44;;;;;;;11.95;6.85;;;13.60;91.10;;;;;;4992363;28;20226;-69
2022/11/28 08:51:48;;;;;;;13.45;7.20;;;13.70;91.10;;;;;;4992667;28;20057;-68
2022/11/28 08:54:52;;;;;;;9.98;7.05;;;14.20;90.90;;;;;;4992468;28;20049;-69
2022/11/28 08:57:56;;;;;;;11.90;5.78;;;14.20;91.10;;;;;;4992213;28;20050;-69
2022/11/28 09:01:00;;;;;;;9.18;5.30;;;14.20;90.50;;;;;;4992268;28;20061;-70
2022/11/28 09:04:04;;;;;;;8.23;5.65;;;14.30;90.60;;;;;;4992668;28;20053;-69
2022/11/28 09:07:09;;;;;;;10.88;5.65;;;14.50;90.50;;;;;;4992061;28;20691;-70
2022/11/28 09:10:13;;;;;;;9.18;5.60;;;14.60;90.30;;;;;;4992470;28;20069;-69
2022/11/28 09:13:16;;;;;;;10.95;5.00;;;14.70;90.30;;;;;;4992198;28;20065;-72
2022/11/28 09:16:21;;;;;;;7.40;5.22;;;14.80;90.10;;;;;;4991986;28;20106;-70
2022/11/28 09:19:25;;;;;;;9.63;5.03;;;14.80;88.60;;;;;;4992130;28;20506;-69
2022/11/28 09:22:29;;;;;;;9.18;5.65;;;14.90;88.50;;;;;;4992157;28;20045;-68
2022/11/28 09:25:38;;;;;;;8.85;5.75;;;15.00;88.10;;;;;;4991873;28;20610;-67
2022/11/28 09:28:42;;;;;;;12.35;6.88;;;15.10;88.40;;;;;;4991314;28;20105;-69
2022/11/28 09:31:46;;;;;;;10.00;6.57;;;15.20;87.50;;;;;;4991853;28;20065;-69
2022/11/28 09:34:50;;;;;;;10.25;6.00;;;15.30;88.40;;;;;;4991599;28;20061;-69
2022/11/28 09:37:54;;;;;;;10.40;7.05;;;15.40;86.20;;;;;;4991758;28;20069;-70
2022/11/28 09:40:57;;;;;;;19.40;7.15;;;15.50;84.90;;;;;;4992171;28;20122;-70
2022/11/28 09:44:43;;;;;;;16.00;6.80;;;15.50;84.60;;;;;;4991402;28;20217;-71
2022/11/28 09:47:59;;;;;;;8.55;4.25;;;15.50;84.40;;;;;;4997176;28;20041;-70
2022/11/28 09:51:41;;;;;;;8.30;3.72;;;15.60;84.00;;;;;;4991883;28;20054;-70
2022/11/28 09:54:55;;;;;;;9.05;3.63;;;15.70;83.90;;;;;;4991059;28;20045;-72
2022/11/28 09:58:17;;;;;;;6.25;2.90;;;16.00;82.60;;;;;;4990853;28;20050;-72
2022/11/28 10:01:21;;;;;;;6.40;2.88;;;16.00;80.50;;;;;;4991530;28;20086;-71
2022/11/28 10:04:56;;;;;;;5.20;2.50;;;16.10;80.70;;;;;;4991458;28;20448;-71
2022/11/28 10:08:48;;;;;;;5.55;2.88;;;16.30;81.00;;;;;;4991186;28;20042;-72
2022/11/28 10:12:28;;;;;;;5.03;2.60;;;16.40;79.40;;;;;;4972518;28;20058;-71
2022/11/28 10:15:54;;;;;;;5.90;2.90;;;16.50;80.00;;;;;;4991657;28;20110;-72
2022/11/28 10:19:02;;;;;;;5.78;2.67;;;16.70;78.30;;;;;;4991484;28;20049;-70
2022/11/28 10:22:14;;;;;;;4.95;2.30;;;16.80;78.00;;;;;;4991372;28;20057;-69
2022/11/28 10:25:25;;;;;;;4.43;1.98;;;16.80;75.40;;;;;;4991714;28;20050;-69
2022/11/28 10:28:33;;;;;;;4.93;2.50;;;16.70;75.40;;;;;;4991170;28;20054;-69
2022/11/28 10:31:43;;;;;;;3.58;2.28;;;16.90;75.90;;;;;;4991119;28;20053;-69
2022/11/28 10:35:05;;;;;;;4.40;2.70;;;17.10;76.40;;;;;;4991282;28;20213;-72
2022/11/28 10:38:14;;;;;;;6.25;2.80;;;17.20;76.20;;;;;;4991127;28;20038;-71
2022/11/28 10:41:30;;;;;;;9.75;2.70;;;17.30;76.90;;;;;;4991000;28;20077;-69
2022/11/28 10:45:07;;;;;;;4.25;2.60;;;17.20;74.90;;;;;;4991140;28;20042;-71
2022/11/28 10:48:26;;;;;;;4.75;1.98;;;17.00;75.20;;;;;;4977452;28;20057;-70
2022/11/28 10:51:46;;;;;;;6.28;3.00;;;17.00;76.60;;;;;;4991250;28;20057;-71
2022/11/28 10:55:02;;;;;;;3.58;2.40;;;17.10;76.40;;;;;;4990890;28;20049;-70
2022/11/28 10:58:23;;;;;;;6.25;2.58;;;17.20;74.30;;;;;;4992131;28;20053;-71
2022/11/28 11:01:37;;;;;;;3.40;2.58;;;17.20;75.60;;;;;;4994745;28;20073;-68
2022/11/28 11:04:41;;;;;;;5.60;3.20;;;17.30;76.00;;;;;;4994300;28;20057;-68
2022/11/28 11:08:21;;;;;;;6.00;3.55;;;17.30;75.50;;;;;;4993779;28;20065;-70
2022/11/28 11:11:27;;;;;;;9.68;4.00;;;17.20;75.70;;;;;;4991365;28;20042;-72
2022/11/28 11:14:35;;;;;;;7.95;4.10;;;17.30;76.60;;;;;;4994404;28;20049;-71
2022/11/28 11:17:39;;;;;;;6.18;3.80;;;17.20;76.30;;;;;;4993988;28;20050;-73
2022/11/28 11:20:42;;;;;;;7.32;3.95;;;17.00;76.00;;;;;;4993997;28;20414;-75
2022/11/28 11:23:48;;;;;;;6.80;3.70;;;17.00;77.10;;;;;;4994202;28;20054;-75
2022/11/28 11:27:01;;;;;;;11.18;4.45;;;16.90;76.30;;;;;;5004247;28;20049;-73
2022/11/28 11:30:32;;;;;;;5.68;3.95;;;16.90;77.40;;;;;;4992526;28;20080;-73
2022/11/28 11:33:37;;;;;;;11.82;4.32;;;16.80;78.10;;;;;;4993852;28;20045;-73
2022/11/28 11:36:41;;;;;;;10.38;4.30;;;16.60;77.00;;;;;;4994003;28;20501;-73
2022/11/28 11:39:50;;;;;;;7.68;3.83;;;16.50;77.30;;;;;;4993753;28;20057;-73
2022/11/28 11:42:57;;;;;;;6.35;3.25;;;16.40;76.60;;;;;;4993743;28;20614;-73
2022/11/28 11:46:12;;;;;;;5.53;3.60;;;16.30;77.60;;;;;;4993919;28;20313;-73
2022/11/28 11:49:34;;;;;;;5.40;3.33;;;16.30;77.70;;;;;;4993517;28;20046;-73
2022/11/28 11:52:39;;;;;;;4.10;3.10;;;16.30;77.30;;;;;;4993291;28;20041;-73
2022/11/28 11:55:52;;;;;;;5.93;3.20;;;16.30;76.80;;;;;;4993616;28;20049;-73
2022/11/28 11:59:00;;;;;;;9.80;4.18;;;16.30;77.40;;;;;;4993308;28;20521;-74
2022/11/28 12:02:22;;;;;;;5.22;3.72;;;16.30;79.10;;;;;;4993110;28;20049;-74
2022/11/28 12:05:30;;;;;;;5.40;3.70;;;16.40;78.60;;;;;;4993500;28;20049;-75
2022/11/28 12:08:40;;;;;;;4.60;2.85;;;16.40;79.40;;;;;;4992850;28;20362;-73
2022/11/28 12:11:52;;;;;;;9.75;3.25;;;16.40;80.10;;;;;;4993073;28;20058;-74
2022/11/28 12:14:56;;;;;;;6.85;3.25;;;16.40;79.00;;;;;;5003707;28;20049;-74
2022/11/28 12:18:18;;;;;;;4.82;2.80;;;16.40;78.70;;;;;;4993093;28;20053;-75
2022/11/28 12:22:03;;;;;;;9.48;3.30;;;16.40;77.40;;;;;;4992953;28;20069;-76
2022/11/28 12:25:15;;;;;;;16.52;10.13;;;16.30;77.60;;;;;;4993149;28;20141;-72
2022/11/28 12:28:37;;;;;;;7.35;3.65;;;16.30;76.60;;;;;;4992702;28;20049;-73
2022/11/28 12:31:47;;;;;;;7.13;4.38;;;16.20;77.30;;;;;;4991962;28;20053;-73
2022/11/28 12:35:23;;;;;;;7.72;3.67;;;16.20;77.30;;;;;;4992911;28;20041;-74
2022/11/28 12:39:03;;;;;;;6.68;3.50;;;16.10;76.90;;;;;;4992433;28;20033;-73
2022/11/28 12:42:46;;;;;;;6.35;2.97;;;16.00;75.10;;;;;;4972055;28;20050;-74
2022/11/28 12:46:05;;;;;;;9.07;3.50;;;15.80;75.50;;;;;;4993045;28;20058;-73
2022/11/28 12:49:23;;;;;;;4.57;3.17;;;15.70;76.20;;;;;;4992630;28;20041;-74
2022/11/28 12:52:35;;;;;;;4.15;2.53;;;15.70;75.60;;;;;;4992640;28;20050;-73
2022/11/28 12:55:48;;;;;;;8.48;2.92;;;15.70;76.20;;;;;;4992866;28;20045;-74
2022/11/28 12:59:12;;;;;;;5.63;2.70;;;15.70;75.60;;;;;;4992430;28;20509;-74
2022/11/28 13:02:35;;;;;;;6.53;3.08;;;15.70;76.00;;;;;;4992594;28;20057;-76
2022/11/28 13:06:14;;;;;;;6.32;2.50;;;15.70;76.00;;;;;;4992394;28;20049;-73
2022/11/28 13:09:32;;;;;;;5.50;2.60;;;15.80;76.90;;;;;;5002852;28;20045;-76
2022/11/28 13:13:15;;;;;;;6.38;2.50;;;15.80;76.60;;;;;;4992592;28;20037;-76
2022/11/28 13:16:49;;;;;;;6.25;3.03;;;15.80;76.20;;;;;;4992241;28;20038;-71
2022/11/28 13:19:59;;;;;;;4.88;2.83;;;15.80;76.30;;;;;;4991793;28;20062;-71
2022/11/28 13:23:16;;;;;;;5.22;3.35;;;15.80;76.50;;;;;;4992222;28;20037;-74
2022/11/28 13:26:45;;;;;;;9.85;4.22;;;15.80;76.80;;;;;;4992034;28;20501;-72
2022/11/28 13:30:21;;;;;;;5.55;2.80;;;15.80;77.10;;;;;;4991976;28;20041;-72
2022/11/28 13:33:52;;;;;;;7.28;4.35;;;15.80;77.20;;;;;;4992286;28;20225;-69
2022/11/28 13:37:07;;;;;;;8.60;4.05;;;15.70;77.50;;;;;;4992107;28;20049;-69
2022/11/28 13:40:17;;;;;;;6.95;3.40;;;15.70;76.60;;;;;;4991671;28;20053;-69
2022/11/28 13:43:51;;;;;;;5.80;3.17;;;15.60;77.60;;;;;;4992038;28;20042;-69
2022/11/28 13:46:55;;;;;;;5.38;2.75;;;15.70;78.50;;;;;;4991916;28;20045;-72
2022/11/28 13:50:21;;;;;;;4.93;3.00;;;15.70;78.20;;;;;;4992080;28;20497;-71
2022/11/28 13:53:26;;;;;;;5.38;3.13;;;15.60;78.20;;;;;;4991521;28;20051;-72
2022/11/28 13:56:30;;;;;;;9.13;3.05;;;15.60;78.30;;;;;;4991842;28;20046;-71
2022/11/28 13:59:35;;;;;;;5.78;2.97;;;15.60;78.00;;;;;;4991461;28;20049;-72
2022/11/28 14:02:49;;;;;;;6.75;3.42;;;15.60;78.00;;;;;;4991332;28;20049;-75
2022/11/28 14:05:57;;;;;;;8.63;3.40;;;15.60;77.30;;;;;;5001914;28;20046;-70
2022/11/28 14:09:08;;;;;;;7.50;3.25;;;15.60;78.00;;;;;;4991300;28;20053;-71
2022/11/28 14:12:20;;;;;;;8.90;3.90;;;15.50;79.30;;;;;;4991550;28;20045;-74
2022/11/28 14:15:43;;;;;;;11.10;5.28;;;15.50;80.40;;;;;;4991409;28;20065;-73
2022/11/28 14:19:09;;;;;;;13.98;5.28;;;15.50;82.00;;;;;;4990785;28;20046;-73
2022/11/28 14:22:13;;;;;;;8.48;4.70;;;15.40;83.20;;;;;;5002706;28;20077;-73
2022/11/28 14:25:37;;;;;;;11.43;5.18;;;15.40;84.50;;;;;;4992027;28;20045;-74
2022/11/28 14:28:44;;;;;;;11.20;5.15;;;15.30;84.60;;;;;;5001904;28;20497;-73
2022/11/28 14:31:51;;;;;;;13.05;6.82;;;15.30;84.70;;;;;;4991990;28;20049;-73
2022/11/28 14:34:56;;;;;;;9.85;5.80;;;15.20;85.10;;;;;;5005450;28;20050;-73
2022/11/28 14:38:01;;;;;;;10.77;6.07;;;15.20;85.90;;;;;;4995204;28;20124;-73
2022/11/28 14:41:10;;;;;;;16.15;6.38;;;15.20;86.40;;;;;;5005539;28;20053;-73
2022/11/28 14:44:44;;;;;;;16.00;7.35;;;15.10;87.20;;;;;;5005694;28;20037;-73
2022/11/28 14:48:15;;;;;;;12.65;7.82;;;15.00;87.00;;;;;;4994597;28;20045;-72
2022/11/28 14:51:43;;;;;;;17.05;8.10;;;15.00;87.40;;;;;;4995280;28;20501;-70
2022/11/28 14:54:52;;;;;;;18.08;8.90;;;14.90;87.20;;;;;;5005288;28;20505;-72
2022/11/28 14:57:59;;;;;;;23.35;10.02;;;14.90;87.60;;;;;;4994418;28;20533;-73
2022/11/28 15:01:10;;;;;;;22.73;10.73;;;14.80;88.30;;;;;;4993876;28;20524;-74
2022/11/28 15:04:58;;;;;;;28.63;12.67;;;14.70;88.30;;;;;;4993997;28;20382;-72
2022/11/28 15:08:27;;;;;;;23.20;12.43;;;14.70;88.90;;;;;;4994786;28;20037;-73
2022/11/28 15:12:04;;;;;;;22.13;11.40;;;14.60;88.80;;;;;;4994095;28;20213;-75
2022/11/28 15:15:13;;;;;;;23.63;10.80;;;14.60;88.60;;;;;;4993840;28;20042;-74
2022/11/28 15:18:19;;;;;;;32.85;11.55;;;14.60;88.50;;;;;;4994493;28;20501;-76
2022/11/28 15:21:24;;;;;;;20.23;10.68;;;14.50;89.20;;;;;;4993571;28;20053;-73
2022/11/28 15:24:37;;;;;;;23.70;10.85;;;14.50;90.10;;;;;;5004911;28;20057;-74
2022/11/28 15:27:42;;;;;;;28.55;11.77;;;14.50;90.60;;;;;;5004531;28;20090;-72
2022/11/28 15:30:51;;;;;;;22.70;10.65;;;14.40;90.70;;;;;;4994211;28;20069;-72
2022/11/28 15:33:55;;;;;;;27.40;10.40;;;14.30;90.50;;;;;;5004287;28;20061;-77
2022/11/28 15:37:04;;;;;;;22.73;10.43;;;14.20;90.20;;;;;;4993742;28;20041;-73
2022/11/28 15:40:20;;;;;;;24.20;11.13;;;14.10;90.80;;;;;;5004318;28;20061;-74
2022/11/28 15:43:25;;;;;;;44.90;16.30;;;14.10;91.30;;;;;;4992339;28;20049;-73
2022/11/28 15:46:32;;;;;;;40.97;16.15;;;14.00;91.10;;;;;;4993541;28;20450;-73
2022/11/28 15:49:39;;;;;;;38.47;16.15;;;13.90;90.70;;;;;;4992657;28;20513;-77
2022/11/28 15:52:57;;;;;;;35.45;12.68;;;13.90;90.80;;;;;;4992775;28;20513;-73
2022/11/28 15:56:13;;;;;;;26.58;14.00;;;13.90;91.20;;;;;;4992494;28;20041;-74
2022/11/28 15:59:17;;;;;;;32.63;18.33;;;13.90;91.10;;;;;;4993578;28;20050;-74
2022/11/28 16:02:41;;;;;;;37.50;13.55;;;13.80;91.20;;;;;;4992439;28;20069;-73
2022/11/28 16:05:49;;;;;;;29.70;12.38;;;13.70;90.90;;;;;;5004055;28;20046;-75
2022/11/28 16:08:57;;;;;;;33.67;13.70;;;13.70;90.50;;;;;;4993310;28;20128;-73
2022/11/28 16:12:04;;;;;;;31.70;14.50;;;13.70;90.40;;;;;;4993154;28;20037;-72
2022/11/28 16:15:19;;;;;;;25.33;12.13;;;13.70;90.40;;;;;;4993432;28;20149;-70
2022/11/28 16:18:26;;;;;;;28.95;13.85;;;13.70;90.20;;;;;;4993271;28;20061;-71
2022/11/28 16:21:37;;;;;;;36.65;16.52;;;13.60;90.00;;;;;;4992922;28;20057;-69
2022/11/28 16:24:47;;;;;;;28.77;15.50;;;13.60;90.10;;;;;;4993138;28;20041;-71
2022/11/28 16:27:52;;;;;;;28.95;16.02;;;13.50;90.00;;;;;;5003648;28;20038;-73
2022/11/28 16:30:56;;;;;;;29.95;17.15;;;13.50;90.40;;;;;;4991867;28;20057;-73
2022/11/28 16:34:01;;;;;;;56.80;22.77;;;13.40;90.40;;;;;;4992583;28;20395;-73
2022/11/28 16:37:10;;;;;;;66.35;22.80;;;13.30;90.70;;;;;;4992871;28;20057;-74
2022/11/28 16:40:18;;;;;;;45.95;20.55;;;13.30;90.90;;;;;;4992732;28;20106;-73
2022/11/28 16:43:38;;;;;;;46.08;22.17;;;12.90;90.40;;;;;;5002912;28;20065;-73
2022/11/28 16:46:54;;;;;;;41.60;19.45;;;13.30;90.50;;;;;;4992646;28;20045;-74
2022/11/28 16:50:20;;;;;;;40.17;17.15;;;13.30;90.80;;;;;;4991938;28;20049;-74